• Join FlightAware (Why Join?)
  • Login
  • US Flag 
11:46AM EDT


 

Airport Tracker/Info


-or-


 

Live Flight TrackerFlight Track Log ✈ GJS3707 ✈ 09-Jul-2013 ✈ KBOI - KORD

Flight Track Log - Related Links

Times and Time Zones

All times are in EDT time to prevent confusion due to time zone crossing. See the GJS3707 flight status page for this flight to view local times or setup timezone preferences in your user account.

Time Position Orientation Groundspeed Altitude Reporting Facility
EDT Latitude Longitude Course Direction KTS MPH feet Rate Location/Type
05:04PM 43.5858 -116.2992 81° East 189 217 4,700  Level Salt Lake Center
05:05PM 43.6164 -116.3853 296° West 239 275 6,300 1,560 Climbing Salt Lake Center
05:06PM 43.6747 -116.4347 328° Northwest 279 321 8,000 1,680 Climbing Salt Lake Center
05:07PM 43.6588 -115.5237 65° Northeast  Level FlightAware Approximate
05:07PM 43.7156 -116.3550 55° Northeast 286 329 9,800  Level Salt Lake Center
05:08PM 43.6762 -115.3479 81° East  Level FlightAware Approximate
05:08PM 43.7328 -116.2231 80° East 310 357 11,200  Level Salt Lake Center
05:09PM 43.7065 -115.1752 81° East  Level FlightAware Approximate
05:09PM 43.7453 -116.0922 82° East 351 404 12,600  Level Salt Lake Center
05:10PM 43.7619 -115.9361 82° East 367 422 15,000 1,680 Climbing Salt Lake Center
05:11PM 43.7761 -115.7997 82° East 375 432 16,100 900 Climbing Salt Lake Center
05:12PM 43.7942 -115.6222 82° East 417 480 16,900 780 Climbing Salt Lake Center
05:13PM 43.8103 -115.4628 82° East 436 502 17,800 1,200 Climbing Salt Lake Center
05:14PM 43.8294 -115.2725 82° East 445 512 19,500 1,440 Climbing Salt Lake Center
05:15PM 43.8453 -115.1094 82° East 447 514 20,800 1,200 Climbing Salt Lake Center
05:16PM 43.8644 -114.9181 82° East 449 517 22,100 1,140 Climbing Salt Lake Center
05:17PM 43.8806 -114.7497 82° East 461 531 23,200 900 Climbing Salt Lake Center
05:18PM 43.8992 -114.5497 83° East 471 542 24,000 720 Climbing Salt Lake Center
05:19PM 43.9150 -114.3722 83° East 484 557 24,700 720 Climbing Salt Lake Center
05:21PM 43.9342 -114.1614 83° East 495 570 25,500 720 Climbing Salt Lake Center
05:22PM 43.9514 -113.9772 83° East 503 579 26,300 900 Climbing Salt Lake Center
05:23PM 43.9692 -113.7667 83° East 500 575 27,400 960 Climbing Salt Lake Center
05:24PM 43.9842 -113.5833 83° East 499 574 28,400 960 Climbing Salt Lake Center
05:25PM 43.9997 -113.3683 84° East 502 578 29,500 960 Climbing Salt Lake Center
05:26PM 44.0147 -113.1844 83° East 502 578 30,500 960 Climbing Salt Lake Center
05:27PM 44.0328 -112.9728 83° East 497 572 31,600 840 Climbing Salt Lake Center
05:28PM 44.0469 -112.7878 84° East 501 577 32,300 660 Climbing Salt Lake Center
05:29PM 44.0628 -112.5714 84° East 504 580 33,000 600 Climbing Salt Lake Center
05:30PM 44.0747 -112.3839 85° East 509 586 33,600 720 Climbing Salt Lake Center
05:31PM 44.0892 -112.1653 85° East 510 587 34,500 720 Climbing Salt Lake Center
05:32PM 44.0900 -111.9778 90° East 508 585 35,100 600 Climbing Salt Lake Center
05:33PM 44.0911 -111.7592 90° East 508 585 35,800 540 Climbing Salt Lake Center
05:34PM 44.0928 -111.5711 89° East 511 588 36,300 480 Climbing Salt Lake Center
05:35PM 44.0931 -111.3511 90° East 513 590 36,900 300 Climbing Salt Lake Center
05:36PM 44.0942 -111.1614 89° East 515 593 37,000  Climbing Salt Lake Center
05:37PM 44.0933 -110.9356 90° East 524 603 37,000  Level Salt Lake Center
05:38PM 44.0925 -110.7378 90° East 534 615 37,000  Level Salt Lake Center
05:39PM 44.0928 -110.5042 90° East 541 623 37,000  Level Salt Lake Center
05:40PM 44.0928 -110.3036 90° East 543 625 37,000  Level Salt Lake Center
05:41PM 44.0900 -110.0725 91° East 539 620 37,000  Level Salt Lake Center
05:42PM 44.0883 -109.8736 91° East 538 619 37,000  Level Salt Lake Center
05:43PM 44.0864 -109.6739 91° East 539 620 37,000  Level Salt Lake Center
05:44PM 44.0831 -109.4411 91° East 540 621 37,000  Level Salt Lake Center
05:45PM 44.0794 -109.2433 91° East 536 617 37,000  Level Salt Lake Center
05:46PM 44.0761 -109.0083 91° East 543 625 37,000  Level Salt Lake Center
05:47PM 44.0719 -108.8089 92° East 541 623 37,000  Level Salt Lake Center
05:48PM 44.0675 -108.5775 91° East 538 619 37,000  Level Salt Lake Center
05:49PM 44.0622 -108.3581 92° East 537 618 37,000  Level Salt Lake Center
05:50PM 44.0569 -108.1578 92° East 540 621 37,000  Level Salt Lake Center
05:52PM 44.0517 -107.9239 92° East 542 624 37,000  Level Salt Lake Center
05:53PM 44.0453 -107.7247 92° East 541 623 37,000  Level Salt Lake Center
05:54PM 44.0394 -107.5225 92° East 544 626 37,000  Level Salt Lake Center
05:55PM 44.0319 -107.2894 92° East 542 624 37,000  Level Salt Lake Center
05:56PM 44.0244 -107.0811 93° East 544 626 37,000  Level Salt Lake Center
05:57PM 44.0186 -106.9106 93° East 546 628 37,000  Level Denver Center
05:58PM 44.0083 -106.6433 93° East 544 626 37,000  Level Denver Center
05:59PM 44.0006 -106.4397 93° East 550 633 37,000  Level Denver Center
06:00PM 44.0022 -106.2042 89° East 547 629 37,000  Level Denver Center
06:01PM 44.0036 -106.0025 89° East 547 629 37,000  Level Denver Center
06:02PM 44.0033 -105.7669 90° East 547 629 37,000  Level Denver Center
06:03PM 44.0042 -105.5644 90° East 546 628 37,000  Level Denver Center
06:04PM 44.0036 -105.3606 90° East 548 631 37,000  Level Denver Center
06:05PM 44.0033 -105.1236 90° East 549 632 37,000  Level Denver Center
06:06PM 44.0017 -104.9186 91° East 550 633 37,000  Level Denver Center
06:07PM 44.0014 -104.6800 90° East 552 635 37,000  Level Denver Center
06:08PM 43.9992 -104.4761 91° East 552 635 37,000  Level Denver Center
06:09PM 43.9972 -104.2417 91° East 547 629 37,000  Level Denver Center
06:10PM 43.9803 -104.0731 98° East 557 641 37,000  Level Denver Center
06:11PM 43.9375 -103.8086 103° East 552 635 37,000  Level Denver Center
06:12PM 43.9067 -103.6083 102° East 553 636 37,000  Level Denver Center
06:13PM 43.8972 -103.4061 94° East 554 638 37,000  Level Denver Center
06:14PM 43.8922 -103.1686 92° East 551 634 37,000  Level Denver Center
06:15PM 43.8836 -102.9667 93° East 550 633 37,000  Level Denver Center
06:16PM 43.8756 -102.7656 93° East 548 631 37,000  Level Denver Center
06:17PM 43.8650 -102.5311 93° East 547 629 37,000  Level Denver Center
06:18PM 43.8528 -102.2947 94° East 551 634 37,000  Level Denver Center
06:19PM 43.8456 -102.1261 93° East 550 633 37,000  Level Denver Center
06:20PM 43.8333 -101.8617 94° East 553 636 37,000  Level Denver Center
06:21PM 43.8231 -101.6508 94° East 550 633 37,000  Level Denver Center
06:22PM 43.8108 -101.4389 94° East 554 638 37,000  Level Denver Center
06:24PM 43.8008 -101.2281 94° East 553 636 37,000  Level Denver Center
06:25PM 43.7908 -101.0583 95° East 555 639 37,000  Level Denver Center
06:26PM 43.7742 -100.7642 94° East 555 639 37,000  Level Minneapolis Center
06:27PM 43.7625 -100.5533 94° East 549 632 37,000  Level Denver Center
06:28PM 43.7492 -100.3417 95° East 552 635 37,000  Level Denver Center
06:29PM 43.7361 -100.1303 95° East 554 638 37,000  Level Denver Center
06:30PM 43.7225 -99.9197 95° East 553 636 37,000  Level Denver Center
06:30PM 43.7169 -99.8386 95° East 552 635 37,000  Level Minneapolis Center
06:31PM 43.6997 -99.5842 95° East 554 638 37,000  Level Minneapolis Center
06:32PM 43.6842 -99.3756 96° East 551 634 37,000  Level Minneapolis Center
06:33PM 43.6661 -99.1239 96° East 551 634 37,000  Level Minneapolis Center
06:34PM 43.6508 -98.9144 96° East 551 634 37,000  Level Minneapolis Center
06:35PM 43.6364 -98.7056 95° East 549 632 37,000  Level Minneapolis Center
06:36PM 43.6186 -98.4739 96° East 550 633 37,000  Level Minneapolis Center
06:38PM 43.6114 -98.2653 93° East 548 631 37,000  Level Minneapolis Center
06:39PM 43.6031 -98.0567 93° East 547 629 37,000  Level Minneapolis Center
06:40PM 43.5956 -97.8483 93° East 547 629 37,000  Level Minneapolis Center
06:41PM 43.5878 -97.6400 93° East 545 627 37,000  Level Minneapolis Center
06:42PM 43.5764 -97.3900 94° East 548 631 37,000  Level Minneapolis Center
06:43PM 43.5692 -97.2247 93° East 546 628 37,000  Level Minneapolis Center
06:44PM 43.5581 -96.9750 93° East 547 629 37,000  Level Minneapolis Center
06:45PM 43.5486 -96.7700 94° East 542 624 37,000  Level Minneapolis Center
06:46PM 43.5386 -96.5661 94° East 539 620 37,000  Level Minneapolis Center
06:47PM 43.5253 -96.3194 94° East 542 624 37,000  Level Minneapolis Center
06:48PM 43.5144 -96.1136 94° East 544 626 37,000  Level Minneapolis Center
06:49PM 43.5039 -95.9094 94° East 541 623 37,000  Level Minneapolis Center
06:50PM 43.4919 -95.7050 95° East 540 621 37,000  Level Minneapolis Center
06:51PM 43.4797 -95.4997 95° East 541 623 37,000  Level Minneapolis Center
06:52PM 43.4656 -95.2511 94° East 545 627 37,000  Level Minneapolis Center
06:53PM 43.4514 -95.0500 95° East 537 618 37,000  Level Minneapolis Center
06:54PM 43.4381 -94.8458 95° East 540 621 37,000  Level Minneapolis Center
06:55PM 43.4214 -94.6017 95° East 536 617 37,000  Level Minneapolis Center
06:56PM 43.4075 -94.3992 95° East 535 616 37,000  Level Minneapolis Center
06:57PM 43.3917 -94.1769 96° East 536 617 37,000  Level Minneapolis Center
06:58PM 43.3769 -93.9753 96° East 536 617 37,000  Level Minneapolis Center
06:59PM 43.3631 -93.7747 95° East 533 613 37,000  Level Minneapolis Center
07:00PM 43.3475 -93.5747 96° East 532 612 37,000  Level Minneapolis Center
07:02PM 43.3289 -93.3367 96° East 529 609 37,000  Level Minneapolis Center
07:03PM 43.3133 -93.1378 96° East 530 610 37,000  Level Minneapolis Center
07:04PM 43.2964 -92.9369 97° East 532 612 37,000 -360 Level Minneapolis Center
07:05PM 43.2769 -92.6972 96° East 531 611 36,200 -900 Descending Minneapolis Center
07:06PM 43.2572 -92.4581 96° East 530 610 34,900 -1,200 Descending Minneapolis Center
07:07PM 43.2358 -92.2208 97° East 527 606 33,600 -1,140 Descending Minneapolis Center
07:08PM 43.2186 -92.0203 97° East 530 610 32,600 -1,020 Descending Minneapolis Center
07:09PM 43.2014 -91.8208 97° East 530 610 31,500 -780 Descending Minneapolis Center
07:10PM 43.1753 -91.6289 101° East 515 593 31,000 -300 Descending Minneapolis Center
07:11PM 43.1136 -91.4503 115° Southeast 515 593 31,000  Level Minneapolis Center
07:12PM 43.0508 -91.2708 116° Southeast 520 598 31,000  Level Minneapolis Center
07:13PM 42.9886 -91.0922 115° Southeast 523 602 31,000 -60 Level Chicago Center
07:14PM 42.9133 -90.8764 115° Southeast 526 605 30,900 -660 Descending Chicago Center
07:15PM 42.8497 -90.6992 116° Southeast 525 604 29,700 -1,140 Descending Chicago Center
07:16PM 42.7861 -90.5242 116° Southeast 520 598 28,600 -1,020 Descending Chicago Center
07:17PM 42.7239 -90.3514 116° Southeast 516 594 27,600 -1,080 Descending Chicago Center
07:18PM 42.6636 -90.1800 116° Southeast 509 586 26,400 -1,140 Descending Chicago Center
07:19PM 42.6092 -90.0036 113° Southeast 515 593 25,300 -1,680 Descending Chicago Center
07:20PM 42.5789 -89.7983 101° East 489 563 23,000 -2,160 Descending Chicago Center
07:21PM 42.5503 -89.6189 102° East 488 562 20,900 -1,980 Descending Chicago Center
07:23PM 42.5247 -89.4464 101° East 475 547 19,000 -2,040 Descending Chicago Center
07:24PM 42.4936 -89.2492 102° East 464 534 16,800 -1,980 Descending Chicago Center
07:25PM 42.4683 -89.0844 102° East 454 522 15,000 -1,620 Descending Chicago Center
07:26PM 42.4431 -88.9314 103° East 431 496 13,500 -1,500 Descending Chicago Center
07:27PM 42.4194 -88.7767 102° East 421 484 12,000 -1,440 Descending Chicago Center
07:28PM 42.3953 -88.6314 103° East 403 464 10,600 -1,020 Descending Chicago Center
07:29PM 42.3644 -88.4661 104° East 392 451 10,000 -300 Descending Chicago Center
07:30PM 42.3183 -88.3531 119° Southeast 389 448 10,000  Level Chicago Center
07:31PM 42.2506 -88.2394 129° Southeast 390 449 10,000  Level Chicago Center
07:32PM 42.1653 -88.1128 132° Southeast 379 436 10,000 -540 Level Chicago Center
07:33PM 42.1000 -88.0328 138° Southeast 323 372 8,900 -1,320 Descending Chicago Center
07:34PM 42.0794 -87.9156 103° East 319 367 7,300 -1,500 Descending Chicago Center
07:35PM 42.0858 -87.8058 85° East 293 337 5,900 -1,260 Descending Chicago Center
07:36PM 42.0575 -87.7206 114° Southeast 275 316 4,700 -1,260 Descending Chicago Center
07:37PM 42.0222 -87.7606 220° Southwest 204 235 3,300 -1,380 Descending Chicago Center